Flight Track Log - Related Links

Times and Time Zones

All times are in EDT time to prevent confusion due to time zone crossing. See the FLG3729 flight status page for this flight to view local times or setup timezone preferences in your user account.

Time Position Orientation Groundspeed Altitude Reporting Facility
EDT Latitude Longitude Course Direction KTS MPH feet Rate Location/Type
Wed 06:05:25 AM 42.7694 -73.8089 283° West 170 196 1,200  Level Boston Center
Wed 06:07:32 AM 42.8831 -73.8881 333° Northwest 247 284 6,600 2,791 Climbing Boston Center
Wed 06:08:00 AM 42.8233 -74.2628 281° West  Level FlightAware Approximate
Wed 06:08:32 AM 42.9425 -73.9575 319° Northwest 253 291 9,900  Level Boston Center
Wed 06:09:00 AM 42.8414 -74.3815 283° West  Level FlightAware Approximate
Wed 06:09:32 AM 42.9919 -74.0156 319° Northwest 253 291 12,100  Level Boston Center
Wed 06:10:00 AM 42.8611 -74.4997 283° West  Level FlightAware Approximate
Wed 06:10:32 AM 43.0278 -74.1328 293° West 281 323 14,000  Level Boston Center
Wed 06:11:32 AM 43.0364 -74.2439 276° West 301 346 16,000 1,950 Climbing Boston Center
Wed 06:12:32 AM 43.0467 -74.3833 276° West 338 389 17,900 1,650 Climbing Boston Center
Wed 06:13:32 AM 43.0528 -74.5031 274° West 347 399 19,300 1,500 Climbing Boston Center
Wed 06:14:32 AM 43.0628 -74.6339 276° West 352 405 20,900 1,500 Climbing Boston Center
Wed 06:15:32 AM 43.0728 -74.7594 276° West 347 399 22,300 1,400 Climbing Boston Center
Wed 06:16:32 AM 43.0828 -74.8906 276° West 347 399 23,700 1,250 Climbing Boston Center
Wed 06:17:32 AM 43.0903 -75.0217 275° West 347 399 24,800 1,050 Climbing Boston Center
Wed 06:18:32 AM 43.0975 -75.1528 274° West 347 399 25,800 1,000 Climbing Boston Center
Wed 06:19:32 AM 43.1069 -75.2842 276° West 347 399 26,800 729 Climbing Boston Center
Wed 06:21:33 AM 43.1239 -75.5506 275° West 344 396 28,000 398 Climbing Cleveland Center
Wed 06:22:33 AM 43.1300 -75.6894 273° West 356 410 28,000  Level Cleveland Center
Wed 06:23:33 AM 43.1397 -75.8253 276° West 363 418 28,000  Level Cleveland Center
Wed 06:24:33 AM 43.1475 -75.9642 274° West 363 418 28,000 50 Level Cleveland Center
Wed 06:25:33 AM 43.1553 -76.1061 274° West 369 425 28,100 600 Climbing Cleveland Center
Wed 06:26:33 AM 43.1542 -76.2400 269° West 369 425 29,200 950 Climbing Cleveland Center
Wed 06:27:33 AM 43.1467 -76.3800 266° West 369 425 30,000 400 Climbing Cleveland Center
Wed 06:28:33 AM 43.1350 -76.5172 263° West 369 425 30,000  Level Cleveland Center
Wed 06:29:33 AM 43.1231 -76.6603 264° West 369 425 30,000  Level Cleveland Center
Wed 06:30:33 AM 43.1075 -76.8150 262° West 369 425 30,000  Level Cleveland Center
Wed 06:31:33 AM 43.0950 -76.9467 263° West 383 441 30,000  Level Cleveland Center
Wed 06:32:33 AM 43.0828 -77.0922 263° West 388 447 30,000  Level Cleveland Center
Wed 06:33:33 AM 43.0683 -77.2353 262° West 388 447 30,000  Level Cleveland Center
Wed 06:34:33 AM 43.0578 -77.3808 264° West 388 447 30,000  Level Cleveland Center
Wed 06:35:33 AM 43.0431 -77.5264 262° West 388 447 30,000  Level Cleveland Center
Wed 06:36:33 AM 43.0300 -77.6664 263° West 388 447 30,000  Level Cleveland Center
Wed 06:37:33 AM 43.0167 -77.8003 262° West 382 440 30,000  Level Cleveland Center
Wed 06:38:33 AM 43.0031 -77.9344 262° West 366 421 30,000  Level Cleveland Center
Wed 06:39:33 AM 42.9894 -78.0683 262° West 361 415 30,000  Level Cleveland Center
Wed 06:40:33 AM 42.9756 -78.2025 262° West 361 415 30,000  Level Cleveland Center
Wed 06:41:33 AM 42.9614 -78.3336 262° West 356 410 30,000  Level Cleveland Center
Wed 06:42:33 AM 42.9494 -78.4672 263° West 356 410 30,000  Level Cleveland Center
Wed 06:43:33 AM 42.9350 -78.5981 261° West 356 410 30,000  Level Cleveland Center
Wed 06:44:33 AM 42.9186 -78.7347 261° West 356 410 30,000  Level Cleveland Center
Wed 06:45:33 AM 42.8997 -78.8714 259° West 361 415 30,000  Level Cleveland Center
Wed 06:46:33 AM 42.8769 -79.0136 258° West 374 430 30,000  Level Cleveland Center
Wed 06:47:33 AM 42.8578 -79.1586 260° West 384 442 30,000  Level Cleveland Center
Wed 06:48:33 AM 42.8386 -79.3064 260° West 392 451 30,000  Level Cleveland Center
Wed 06:49:33 AM 42.8153 -79.4483 257° West 392 451 30,000  Level Cleveland Center
Wed 06:50:33 AM 42.7956 -79.5872 259° West 387 445 30,000  Level Cleveland Center
Wed 06:51:33 AM 42.7739 -79.7206 258° West 381 438 30,000  Level Cleveland Center
Wed 06:52:33 AM 42.7539 -79.8594 259° West 376 433 30,000  Level Cleveland Center
Wed 06:53:33 AM 42.7422 -80.0008 264° West 371 427 30,000  Level Cleveland Center
Wed 06:54:33 AM 42.7386 -80.1367 268° West 366 421 30,000  Level Cleveland Center
Wed 06:55:33 AM 42.7328 -80.2750 267° West 373 429 30,000  Level Cleveland Center
Wed 06:56:33 AM 42.7289 -80.4136 268° West 364 419 30,000  Level Cleveland Center
Wed 06:57:33 AM 42.7228 -80.5550 267° West 375 432 30,000 -350 Level Cleveland Center
Wed 06:58:33 AM 42.7144 -80.6933 265° West 375 432 29,300 -900 Descending Cleveland Center
Wed 06:59:33 AM 42.7100 -80.8458 268° West 375 432 28,200 -1,050 Descending Cleveland Center
Wed 07:00:33 AM 42.6950 -80.9814 261° West 367 422 27,200 -1,000 Descending Cleveland Center
Wed 07:01:33 AM 42.6800 -81.1169 261° West 367 422 26,200 -1,000 Descending Cleveland Center
Wed 07:02:33 AM 42.6667 -81.2525 262° West 367 422 25,200 -1,000 Descending Cleveland Center
Wed 07:03:33 AM 42.6492 -81.3933 260° West 372 428 24,200 -1,000 Descending Cleveland Center
Wed 07:04:33 AM 42.6333 -81.5342 261° West 377 434 23,200 -1,300 Descending Cleveland Center
Wed 07:05:33 AM 42.6175 -81.6722 261° West 377 434 21,600 -1,550 Descending Cleveland Center
Wed 07:06:33 AM 42.5997 -81.7989 259° West 364 419 20,100 -1,550 Descending Cleveland Center
Wed 07:07:33 AM 42.5836 -81.9283 260° West 359 413 18,500 -1,700 Descending Cleveland Center
Wed 07:08:33 AM 42.5697 -82.0519 261° West 353 406 16,700 -1,750 Descending Cleveland Center
Wed 07:09:33 AM 42.5556 -82.1672 261° West 335 386 15,000 -1,700 Descending Cleveland Center
Wed 07:10:33 AM 42.5394 -82.2825 259° West 323 372 13,300 -1,792 Descending Cleveland Center
Wed 07:10:50 AM 42.5367 -82.3247 265° West 310 357 12,700 -1,500 Descending Cleveland Center
Wed 07:11:21 AM 42.5317 -82.3808 263° West 310 357 12,100 -488 Descending Cleveland Center
Wed 07:12:16 AM 42.5175 -82.4847 260° West 309 356 12,000 -83 Descending Cleveland Center
Wed 07:12:33 AM 42.5128 -82.5128 257° West 312 359 12,000  Level Cleveland Center
Wed 07:13:33 AM 42.4797 -82.6214 248° West 312 359 12,000 -288 Level Cleveland Center
Wed 07:14:17 AM 42.4531 -82.7022 246° West 314 361 11,500 -700 Descending Cleveland Center
Wed 07:14:33 AM 42.4422 -82.7272 240° Southwest 318 366 11,300 -1,071 Descending Cleveland Center
Wed 07:15:13 AM 42.4200 -82.7967 247° West 295 339 10,500 -1,000 Descending Cleveland Center
Wed 07:15:33 AM 42.4069 -82.8244 238° Southwest 311 358 10,300 -900 Descending Cleveland Center
Wed 07:16:13 AM 42.3892 -82.8828 248° West 248 285 9,600 -1,000 Descending Cleveland Center
Wed 07:16:33 AM 42.3783 -82.9133 244° Southwest 287 330 9,300 -1,082 Descending Cleveland Center
Wed 07:17:14 AM 42.3811 -82.9808 273° West 252 290 8,500 -1,000 Descending Cleveland Center
Wed 07:17:33 AM 42.3764 -83.0031 254° West 260 299 8,300 -1,082 Descending Cleveland Center
Wed 07:18:15 AM 42.3792 -83.0708 273° West 244 281 7,400 -1,200 Descending Cleveland Center
Wed 07:18:33 AM 42.3764 -83.0961 262° West 254 292 7,100 -1,869 Descending Cleveland Center
Wed 07:19:16 AM 42.3792 -83.1636 273° West 237 273 5,500 -1,900 Descending Cleveland Center
Wed 07:19:33 AM 42.3767 -83.1858 261° West 249 287 5,200 -1,418 Descending Cleveland Center
Wed 07:20:11 AM 42.3567 -83.2300 239° Southwest 208 239 4,200 -1,300 Descending Cleveland Center
Wed 07:20:33 AM 42.3397 -83.2461 215° Southwest 214 246 3,900 -818 Descending Cleveland Center

Login

Don't have an account? Register now (free) for customized features, flight alerts, and more!